Airfield :
LOGIN :

Register | Disclaimer

   EN    FR    IT 

 










Legend :    VFR   Marginal VFR   IFR   Intensive IFR   Very Intensive IFR
Visi :
Ceiling :
>= 8 km
>= 3000ft
5 to 8 km
1000 to 3000 ft
1500m to 5 km
500 to 1000 ft
800 to 1500m
200 to 500 ft
< 800m
< 200 ft
Symbols :   Thunderstorms  Fog  Heavy snow  Heavy precipitations  Wind > 20 kt
SIGMETs :     Misc.  Thunderstorms  Icing  Turbulence  Mountain Waves  Volcanic Ashes






- Airport Elevation : 257 ft
- IATA code : MAN


EGCC - Manchester

CURRENT METAR :
  • 280620Z 24012KT 9999 VCSH BKN021 BKN035 02/01 Q0989 TEMPO SHRASN BKN012

EXPIRED METARs :
  • 280550Z AUTO 24010KT 4200 -SN BKN017/// BKN027/// //////TCU 02/01 Q0989 RESHRA RESN
  • 280520Z 26007KT 9999 SCT013CB BKN024 02/00 Q0988 RESHRA RESN
  • 280450Z 28010KT 9999 5000N -SHRASN BKN011TCU BKN017 02/01 Q0988 TEMPO 4000 SHRASN
  • 280420Z 24012KT 9999 -SHRA SCT027TCU BKN045 02/01 Q0987 TEMPO SHRA
  • 280350Z 24011KT 9999 SCT015 02/01 Q0987 RESHRA TEMPO SHRA

TAF TAF EGCC
Valid from the 28 at 06:00 until the 29 at 12:00 UTC


280500Z 2806/2912 26012KT 9999 FEW020
TEMPO 2806/2811 28018G28KT 4000 SHRASN BKN006
PROB40
TEMPO 2806/2811 1400 SHSN BKN003
PROB40
TEMPO 2811/2912 28015G25KT
PROB30
TEMPO 2811/2824 7000 SHRA
PROB30
TEMPO 2900/2905 4000 SHRASN
PROB30
TEMPO 2905/2912 7000 SHRA
ATIS : +44 161 499 2324



MET'MAP, your aeronautical weather chart ! - Copyright ORBIFLY December 2007 - Disclaimer

ORBIFLY MET'MAP TEAM :

Programming & Development : Alexandra Zaïnal
Concept & original design : Baudouin d'Aumeries
Assistance for programming : Marc-Olivier Méhu
Technical & hardware support : Manuel Goepfert

Contact : metmap@orbifly.com




SOURCES & CREDITS :

   NOAA